createdAt,value
2018-11-06T00:02:18.836Z,100.00
2018-11-06T00:04:52.487Z,100.00
2018-11-06T00:07:21.231Z,100.00
2018-11-06T00:09:49.714Z,100.00
2018-11-06T00:12:18.268Z,100.00
2018-11-06T00:14:46.777Z,100.00
2018-11-06T00:17:15.345Z,100.00
2018-11-06T00:19:43.883Z,100.00
2018-11-06T00:22:12.399Z,100.00
2018-11-06T00:24:41.027Z,100.00
2018-11-06T00:27:09.645Z,100.00
2018-11-06T00:29:38.350Z,100.00
2018-11-06T00:32:06.903Z,100.00
2018-11-06T00:34:35.453Z,100.00
2018-11-06T00:37:05.672Z,100.00
2018-11-06T00:39:34.149Z,100.00
2018-11-06T00:42:04.511Z,100.00
2018-11-06T00:44:33.061Z,100.00
2018-11-06T00:47:02.720Z,100.00
2018-11-06T00:49:31.421Z,100.00
2018-11-06T00:51:59.989Z,100.00
2018-11-06T00:54:28.618Z,100.00
2018-11-06T00:56:57.243Z,100.00
2018-11-06T00:59:26.208Z,100.00
2018-11-06T01:01:54.757Z,100.00
2018-11-06T01:04:23.345Z,100.00
2018-11-06T01:06:51.949Z,100.00
2018-11-06T01:09:20.535Z,100.00
2018-11-06T01:11:49.176Z,100.00
2018-11-06T01:14:17.711Z,100.00
2018-11-06T01:16:46.262Z,100.00
2018-11-06T01:19:14.800Z,100.00
2018-11-06T01:21:43.373Z,100.00
2018-11-06T01:24:11.928Z,100.00
2018-11-06T01:26:40.466Z,100.00
2018-11-06T01:29:09.557Z,100.00
2018-11-06T01:31:38.238Z,100.00
2018-11-06T01:34:06.793Z,100.00
2018-11-06T01:36:35.316Z,100.00
2018-11-06T01:39:07.628Z,100.00
2018-11-06T01:41:36.164Z,100.00
2018-11-06T01:44:05.442Z,100.00
2018-11-06T01:46:33.987Z,100.00
2018-11-06T01:49:04.049Z,100.00
2018-11-06T01:51:32.933Z,100.00
2018-11-06T01:54:02.959Z,100.00
2018-11-06T01:56:31.486Z,100.00
2018-11-06T01:58:59.994Z,100.00
2018-11-06T02:01:28.559Z,100.00
2018-11-06T02:03:57.114Z,100.00
2018-11-06T02:06:25.882Z,100.00
2018-11-06T02:08:54.408Z,100.00
2018-11-06T02:11:23.007Z,100.00
2018-11-06T02:13:51.669Z,100.00
2018-11-06T02:16:20.205Z,100.00
2018-11-06T02:18:48.720Z,100.00
2018-11-06T02:21:17.239Z,100.00
2018-11-06T02:23:45.993Z,100.00
2018-11-06T02:26:14.556Z,100.00
2018-11-06T02:28:49.623Z,100.00
2018-11-06T02:31:18.110Z,100.00
2018-11-06T02:33:46.686Z,100.00
2018-11-06T02:36:15.252Z,100.00
2018-11-06T02:38:43.853Z,100.00
2018-11-06T02:41:12.367Z,100.00
2018-11-06T02:43:40.863Z,100.00
2018-11-06T02:46:09.418Z,100.00
2018-11-06T02:48:38.205Z,100.00
2018-11-06T02:51:06.775Z,100.00
2018-11-06T02:53:35.323Z,100.00
2018-11-06T02:56:07.243Z,100.00
2018-11-06T02:58:36.163Z,100.00
2018-11-06T03:01:05.627Z,100.00
2018-11-06T03:03:41.493Z,100.00
2018-11-06T03:06:11.878Z,100.00
2018-11-06T03:08:40.719Z,100.00
2018-11-06T03:11:09.387Z,100.00
2018-11-06T03:13:38.342Z,100.00
2018-11-06T03:16:06.913Z,100.00
2018-11-06T03:18:35.733Z,100.00
2018-11-06T03:21:05.364Z,100.00
2018-11-06T03:23:33.884Z,100.00
2018-11-06T03:26:05.197Z,100.00
2018-11-06T03:28:33.853Z,100.00
2018-11-06T03:31:03.839Z,100.00
2018-11-06T03:33:32.352Z,100.00
2018-11-06T03:36:00.902Z,100.00
2018-11-06T03:38:29.457Z,100.00
2018-11-06T03:40:57.970Z,100.00
2018-11-06T03:43:26.501Z,100.00
2018-11-06T03:45:55.013Z,100.00
2018-11-06T03:48:23.547Z,100.00
2018-11-06T03:50:52.175Z,100.00
2018-11-06T03:53:20.684Z,100.00
2018-11-06T03:55:49.221Z,100.00
2018-11-06T03:58:18.521Z,100.00
2018-11-06T04:00:47.057Z,100.00
2018-11-06T04:03:15.789Z,100.00
2018-11-06T04:05:44.308Z,100.00
2018-11-06T04:08:12.926Z,100.00
2018-11-06T04:10:41.797Z,100.00
2018-11-06T04:13:10.301Z,100.00
2018-11-06T04:15:38.901Z,100.00
2018-11-06T04:18:07.420Z,100.00
2018-11-06T04:20:36.276Z,100.00
2018-11-06T04:23:05.603Z,100.00
2018-11-06T04:25:34.532Z,100.00
2018-11-06T04:28:04.357Z,100.00
2018-11-06T04:30:32.882Z,100.00
2018-11-06T04:33:03.287Z,100.00
2018-11-06T04:35:32.373Z,100.00
2018-11-06T04:38:00.908Z,100.00
2018-11-06T04:40:29.486Z,100.00
2018-11-06T04:42:57.996Z,100.00
2018-11-06T04:45:26.566Z,100.00
2018-11-06T04:47:55.114Z,100.00
2018-11-06T04:50:23.673Z,100.00
2018-11-06T04:52:52.261Z,100.00
2018-11-06T04:55:20.788Z,100.00
2018-11-06T04:57:49.827Z,100.00
2018-11-06T05:00:18.350Z,100.00
2018-11-06T05:02:46.916Z,100.00
2018-11-06T05:05:15.600Z,100.00
2018-11-06T05:07:44.505Z,100.00
2018-11-06T05:10:15.944Z,100.00
2018-11-06T05:12:44.809Z,100.00
2018-11-06T05:15:14.573Z,100.00
2018-11-06T05:17:43.168Z,100.00
2018-11-06T05:20:14.384Z,100.00
2018-11-06T05:22:43.391Z,100.00
2018-11-06T05:25:11.902Z,100.00
2018-11-06T05:27:40.691Z,100.00
2018-11-06T05:30:10.807Z,100.00
2018-11-06T05:32:40.360Z,100.00
2018-11-06T05:35:09.736Z,100.00
2018-11-06T05:37:39.499Z,100.00
2018-11-06T05:40:19.241Z,100.00
2018-11-06T05:42:47.840Z,100.00
2018-11-06T05:45:16.347Z,100.00
2018-11-06T05:47:48.911Z,100.00
2018-11-06T05:50:17.806Z,100.00
2018-11-06T05:52:46.337Z,100.00
2018-11-06T05:55:15.042Z,100.00
2018-11-06T05:57:43.640Z,100.00
2018-11-06T06:00:12.274Z,100.00
2018-11-06T06:02:40.888Z,100.00
2018-11-06T06:05:09.252Z,100.00
2018-11-06T06:07:37.796Z,100.00
2018-11-06T06:10:07.089Z,100.00
2018-11-06T06:12:36.006Z,100.00
2018-11-06T06:15:06.840Z,100.00
2018-11-06T06:17:35.469Z,100.00
2018-11-06T06:20:06.654Z,100.00
2018-11-06T06:22:35.342Z,100.00
2018-11-06T06:25:10.541Z,100.00
2018-11-06T06:27:39.209Z,100.00
2018-11-06T06:30:10.289Z,100.00
2018-11-06T06:32:38.861Z,100.00
2018-11-06T06:35:07.483Z,100.00
2018-11-06T06:37:36.053Z,100.00
2018-11-06T06:40:06.509Z,100.00
2018-11-06T06:42:35.041Z,100.00
2018-11-06T06:45:07.334Z,100.00
2018-11-06T06:47:36.720Z,100.00
2018-11-06T06:50:08.283Z,100.00
2018-11-06T06:52:37.268Z,100.00
2018-11-06T06:55:07.592Z,100.00
2018-11-06T06:57:36.690Z,100.00
2018-11-06T07:00:06.735Z,100.00
2018-11-06T07:02:35.944Z,100.00
2018-11-06T07:05:07.068Z,100.00
2018-11-06T07:07:35.853Z,100.00
2018-11-06T07:10:06.324Z,100.00
2018-11-06T07:12:35.312Z,100.00
2018-11-06T07:15:08.014Z,100.00
2018-11-06T07:17:36.922Z,100.00
2018-11-06T07:20:07.566Z,100.00
2018-11-06T07:22:36.298Z,100.00
2018-11-06T07:25:06.604Z,100.00
2018-11-06T07:27:38.848Z,100.00
2018-11-06T07:30:09.781Z,100.00
2018-11-06T07:32:38.750Z,100.00
2018-11-06T07:35:08.419Z,100.00
2018-11-06T07:37:37.233Z,100.00
2018-11-06T07:40:06.888Z,100.00
2018-11-06T07:42:35.416Z,100.00
2018-11-06T07:45:07.153Z,100.00
2018-11-06T07:47:35.744Z,100.00
2018-11-06T07:50:06.251Z,100.00
2018-11-06T07:52:35.217Z,100.00
2018-11-06T07:55:06.295Z,100.00
2018-11-06T07:57:34.799Z,100.00
2018-11-06T08:00:10.051Z,100.00
2018-11-06T08:02:39.832Z,100.00
2018-11-06T08:05:08.542Z,100.00
2018-11-06T08:07:37.144Z,100.00
2018-11-06T08:10:06.751Z,100.00
2018-11-06T08:12:35.503Z,100.00
2018-11-06T08:15:05.724Z,100.00
2018-11-06T08:17:34.532Z,100.00
2018-11-06T08:20:05.137Z,100.00
2018-11-06T08:22:33.751Z,100.00
2018-11-06T08:25:07.071Z,100.00
2018-11-06T08:27:35.813Z,100.00
2018-11-06T08:30:06.167Z,100.00
2018-11-06T08:32:35.411Z,99.81
2018-11-06T08:35:05.730Z,100.00
2018-11-06T08:37:34.270Z,100.00
2018-11-06T08:40:05.816Z,100.00
2018-11-06T08:42:34.506Z,99.71
2018-11-06T08:45:05.432Z,98.82
2018-11-06T08:47:33.995Z,98.86
2018-11-06T08:50:03.499Z,98.83
2018-11-06T08:52:32.050Z,98.74
2018-11-06T08:55:00.777Z,98.90
2018-11-06T08:57:29.400Z,98.12
2018-11-06T08:59:57.934Z,97.95
2018-11-06T09:02:26.646Z,97.43
2018-11-06T09:04:55.385Z,97.15
2018-11-06T09:07:23.941Z,97.22
2018-11-06T09:09:52.475Z,97.46
2018-11-06T09:12:21.158Z,97.18
2018-11-06T09:14:49.698Z,96.27
2018-11-06T09:17:18.544Z,96.98
2018-11-06T09:19:47.067Z,96.50
2018-11-06T09:22:15.635Z,96.82
2018-11-06T09:24:44.768Z,95.35
2018-11-06T09:27:13.289Z,95.46
2018-11-06T09:29:41.878Z,95.88
2018-11-06T09:32:10.408Z,95.07
2018-11-06T09:34:38.940Z,93.45
2018-11-06T09:37:07.869Z,93.41
2018-11-06T09:39:37.942Z,92.48
2018-11-06T09:42:06.902Z,91.36
2018-11-06T09:44:35.501Z,89.79
2018-11-06T09:47:05.875Z,90.29
2018-11-06T09:49:34.350Z,88.95
2018-11-06T09:52:04.708Z,87.93
2018-11-06T09:54:33.206Z,87.64
2018-11-06T09:57:02.831Z,86.68
2018-11-06T09:59:31.429Z,86.02
2018-11-06T10:02:00.254Z,85.03
2018-11-06T10:04:28.832Z,85.71
2018-11-06T10:06:57.620Z,84.94
2018-11-06T10:09:25.869Z,84.32
2018-11-06T10:11:54.879Z,84.54
2018-11-06T10:14:23.377Z,83.71
2018-11-06T10:16:51.975Z,83.04
2018-11-06T10:19:20.516Z,82.26
2018-11-06T10:21:49.053Z,81.60
2018-11-06T10:24:17.636Z,82.49
2018-11-06T10:26:46.500Z,80.37
2018-11-06T10:29:15.074Z,80.48
2018-11-06T10:31:44.576Z,80.47
2018-11-06T10:34:13.104Z,81.03
2018-11-06T10:36:41.652Z,80.47
2018-11-06T10:39:12.335Z,79.40
2018-11-06T10:41:41.321Z,79.46
2018-11-06T10:44:09.962Z,79.87
2018-11-06T10:46:38.972Z,79.04
2018-11-06T10:49:08.485Z,78.37
2018-11-06T10:51:37.101Z,79.11
2018-11-06T10:54:06.131Z,77.44
2018-11-06T10:56:34.724Z,77.34
2018-11-06T10:59:06.547Z,76.72
2018-11-06T11:01:40.246Z,75.92
2018-11-06T11:04:14.100Z,75.93
2018-11-06T11:06:42.616Z,75.12
2018-11-06T11:09:11.769Z,75.85
2018-11-06T11:11:40.404Z,75.67
2018-11-06T11:14:09.032Z,75.35
2018-11-06T11:16:37.577Z,74.91
2018-11-06T11:19:06.273Z,75.44
2018-11-06T11:21:34.816Z,75.45
2018-11-06T11:24:04.837Z,76.24
2018-11-06T11:26:33.424Z,75.16
2018-11-06T11:29:04.539Z,75.61
2018-11-06T11:31:33.113Z,73.39
2018-11-06T11:34:02.687Z,74.49
2018-11-06T11:36:31.245Z,73.32
2018-11-06T11:38:59.857Z,74.28
2018-11-06T11:41:28.598Z,73.12
2018-11-06T11:43:57.145Z,72.55
2018-11-06T11:46:25.656Z,72.56
2018-11-06T11:48:54.406Z,71.83
2018-11-06T11:51:23.060Z,70.32
2018-11-06T11:53:51.588Z,70.33
2018-11-06T11:56:20.128Z,69.89
2018-11-06T11:58:48.688Z,70.17
2018-11-06T12:01:17.326Z,71.97
2018-11-06T12:03:46.162Z,71.83
2018-11-06T12:06:14.682Z,70.66
2018-11-06T12:08:43.713Z,70.12
2018-11-06T12:11:12.288Z,70.06
2018-11-06T12:13:41.009Z,68.10
2018-11-06T12:16:09.630Z,66.10
2018-11-06T12:18:38.178Z,67.54
2018-11-06T12:21:06.828Z,67.30
2018-11-06T12:23:35.340Z,67.20
2018-11-06T12:26:04.876Z,67.84
2018-11-06T12:28:33.440Z,66.97
2018-11-06T12:31:04.664Z,68.21
2018-11-06T12:33:33.563Z,67.80
2018-11-06T12:36:05.282Z,66.88
2018-11-06T12:38:33.903Z,68.22
2018-11-06T12:41:03.873Z,67.83
2018-11-06T12:43:33.618Z,68.08
2018-11-06T12:46:04.103Z,67.98
2018-11-06T12:48:32.642Z,67.64
2018-11-06T12:51:03.253Z,67.08
2018-11-06T12:53:32.052Z,67.34
2018-11-06T12:56:00.573Z,67.91
2018-11-06T12:58:29.117Z,67.41
2018-11-06T13:00:57.650Z,67.67
2018-11-06T13:03:26.323Z,67.21
2018-11-06T13:05:54.946Z,66.59
2018-11-06T13:08:23.549Z,65.68
2018-11-06T13:10:52.073Z,66.49
2018-11-06T13:13:20.643Z,66.02
2018-11-06T13:15:49.262Z,65.96
2018-11-06T13:18:17.954Z,65.40
2018-11-06T13:20:46.478Z,64.81
2018-11-06T13:23:15.212Z,62.68
2018-11-06T13:25:43.846Z,62.75
2018-11-06T13:28:12.401Z,62.74
2018-11-06T13:30:41.164Z,61.64
2018-11-06T13:33:09.821Z,62.28
2018-11-06T13:35:38.543Z,60.18
2018-11-06T13:38:07.340Z,59.84
2018-11-06T13:40:36.169Z,60.92
2018-11-06T13:43:05.724Z,61.06
2018-11-06T13:45:34.513Z,63.43
2018-11-06T13:48:05.100Z,63.15
2018-11-06T13:50:35.398Z,62.05
2018-11-06T13:53:06.566Z,62.26
2018-11-06T13:55:35.107Z,63.13
2018-11-06T13:58:05.706Z,61.43
2018-11-06T14:00:34.267Z,64.78
2018-11-06T14:03:04.647Z,63.73
2018-11-06T14:05:33.270Z,62.94
2018-11-06T14:08:02.664Z,64.80
2018-11-06T14:10:31.273Z,63.98
2018-11-06T14:12:59.833Z,62.64
2018-11-06T14:15:28.372Z,65.32
2018-11-06T14:17:56.896Z,65.86
2018-11-06T14:20:25.416Z,65.08
2018-11-06T14:22:54.458Z,66.60
2018-11-06T14:25:22.994Z,68.01
2018-11-06T14:27:51.542Z,68.21
2018-11-06T14:30:20.425Z,68.32
2018-11-06T14:32:49.273Z,69.25
2018-11-06T14:35:18.894Z,68.71
2018-11-06T14:37:47.736Z,69.00
2018-11-06T14:40:16.768Z,69.72
2018-11-06T14:42:45.749Z,70.69
2018-11-06T14:45:15.684Z,70.96
2018-11-06T14:47:44.340Z,70.45
2018-11-06T14:50:13.235Z,71.86
2018-11-06T14:52:41.784Z,72.77
2018-11-06T14:55:12.307Z,74.36
2018-11-06T14:57:41.067Z,74.52
2018-11-06T15:00:14.411Z,74.92
2018-11-06T15:02:44.256Z,74.79
2018-11-06T15:05:12.815Z,73.71
2018-11-06T15:07:41.420Z,75.16
2018-11-06T15:10:10.707Z,76.49
2018-11-06T15:12:39.288Z,77.53
2018-11-06T15:15:09.404Z,79.57
2018-11-06T15:17:38.209Z,79.69
2018-11-06T15:20:09.308Z,78.96
2018-11-06T15:22:37.963Z,79.75
2018-11-06T15:25:07.002Z,80.68
2018-11-06T15:27:36.150Z,80.69
2018-11-06T15:30:07.056Z,81.80
2018-11-06T15:32:35.606Z,81.85
2018-11-06T15:35:07.477Z,82.42
2018-11-06T15:37:36.569Z,83.75
2018-11-06T15:40:05.930Z,82.99
2018-11-06T15:42:34.569Z,84.27
2018-11-06T15:45:05.448Z,83.88
2018-11-06T15:47:34.065Z,83.95
2018-11-06T15:50:04.615Z,83.93
2018-11-06T15:52:33.335Z,84.20
2018-11-06T15:55:05.422Z,85.87
2018-11-06T15:57:34.168Z,85.43
2018-11-06T16:00:03.882Z,85.77
2018-11-06T16:02:32.878Z,85.59
2018-11-06T16:05:02.995Z,85.84
2018-11-06T16:07:31.606Z,86.43
2018-11-06T16:10:00.173Z,86.34
2018-11-06T16:12:28.740Z,86.02
2018-11-06T16:14:57.805Z,86.53
2018-11-06T16:17:26.315Z,86.70
2018-11-06T16:19:54.944Z,87.06
2018-11-06T16:22:23.503Z,87.27
2018-11-06T16:24:52.150Z,87.19
2018-11-06T16:27:20.742Z,87.80
2018-11-06T16:29:49.419Z,88.18
2018-11-06T16:32:24.113Z,88.78
2018-11-06T16:34:52.677Z,88.37
2018-11-06T16:37:21.913Z,88.95
2018-11-06T16:39:50.847Z,89.63
2018-11-06T16:42:19.496Z,90.04
2018-11-06T16:44:48.031Z,89.75
2018-11-06T16:47:16.618Z,90.27
2018-11-06T16:49:45.243Z,90.51
2018-11-06T16:52:14.909Z,90.74
2018-11-06T16:54:43.793Z,90.92
2018-11-06T16:57:12.412Z,91.58
2018-11-06T16:59:41.130Z,91.82
2018-11-06T17:02:09.928Z,91.15
2018-11-06T17:04:38.438Z,91.07
2018-11-06T17:07:07.005Z,92.43
2018-11-06T17:09:35.627Z,91.85
2018-11-06T17:12:04.462Z,93.15
2018-11-06T17:14:33.153Z,92.96
2018-11-06T17:17:04.596Z,92.33
2018-11-06T17:19:33.176Z,91.81
2018-11-06T17:22:03.179Z,92.90
2018-11-06T17:24:31.733Z,92.49
2018-11-06T17:27:00.346Z,92.27
2018-11-06T17:29:29.009Z,91.15
2018-11-06T17:31:57.568Z,90.88
2018-11-06T17:34:26.680Z,91.73
2018-11-06T17:36:55.402Z,91.83
2018-11-06T17:39:28.012Z,92.32
2018-11-06T17:41:56.533Z,91.56
2018-11-06T17:44:25.071Z,91.01
2018-11-06T17:46:53.635Z,90.69
2018-11-06T17:49:22.174Z,90.40
2018-11-06T17:51:50.736Z,91.48
2018-11-06T17:54:20.186Z,90.93
2018-11-06T17:56:49.648Z,90.10
2018-11-06T17:59:18.604Z,90.71
2018-11-06T18:01:47.170Z,91.33
2018-11-06T18:04:16.188Z,91.31
2018-11-06T18:06:44.839Z,91.36
2018-11-06T18:09:14.052Z,91.99
2018-11-06T18:11:42.688Z,91.30
2018-11-06T18:14:11.531Z,91.96
2018-11-06T18:16:40.489Z,92.66
2018-11-06T18:19:09.185Z,92.49
2018-11-06T18:21:37.769Z,92.72
2018-11-06T18:24:09.301Z,92.84
2018-11-06T18:26:38.042Z,93.02
2018-11-06T18:29:07.157Z,93.50
2018-11-06T18:31:35.805Z,93.38
2018-11-06T18:34:08.329Z,93.48
2018-11-06T18:36:37.049Z,94.29
2018-11-06T18:39:09.683Z,94.82
2018-11-06T18:41:38.420Z,94.40
2018-11-06T18:44:07.759Z,95.00
2018-11-06T18:46:36.606Z,95.35
2018-11-06T18:49:06.128Z,96.22
2018-11-06T18:51:34.712Z,96.18
2018-11-06T18:54:08.565Z,96.64
2018-11-06T18:56:37.210Z,96.43
2018-11-06T18:59:06.276Z,95.73
2018-11-06T19:01:34.920Z,95.80
2018-11-06T19:04:05.951Z,96.81
2018-11-06T19:06:34.542Z,96.01
2018-11-06T19:09:07.515Z,96.42
2018-11-06T19:11:36.187Z,97.03
2018-11-06T19:14:05.723Z,96.97
2018-11-06T19:16:34.361Z,95.74
2018-11-06T19:19:06.316Z,96.24
2018-11-06T19:21:35.063Z,96.79
2018-11-06T19:24:05.843Z,96.94
2018-11-06T19:26:34.858Z,98.38
2018-11-06T19:29:05.855Z,98.02
2018-11-06T19:31:34.541Z,98.86
2018-11-06T19:34:04.860Z,99.49
2018-11-06T19:36:33.608Z,99.50
2018-11-06T19:39:06.026Z,99.42
2018-11-06T19:41:35.609Z,98.84
2018-11-06T19:44:07.115Z,98.34
2018-11-06T19:46:36.081Z,98.16
2018-11-06T19:49:05.438Z,97.95
2018-11-06T19:51:34.906Z,98.44
2018-11-06T19:54:05.839Z,98.73
2018-11-06T19:56:35.074Z,98.80
2018-11-06T19:59:04.644Z,99.05
2018-11-06T20:01:33.489Z,99.33
2018-11-06T20:04:04.445Z,99.06
2018-11-06T20:06:33.650Z,99.14
2018-11-06T20:09:05.384Z,99.59
2018-11-06T20:11:34.666Z,99.88
2018-11-06T20:14:05.156Z,100.00
2018-11-06T20:16:34.171Z,99.98
2018-11-06T20:19:04.978Z,100.00
2018-11-06T20:21:33.721Z,100.00
2018-11-06T20:24:04.215Z,100.00
2018-11-06T20:26:33.445Z,100.00
2018-11-06T20:29:04.826Z,99.93
2018-11-06T20:31:34.018Z,100.00
2018-11-06T20:34:06.388Z,100.00
2018-11-06T20:36:35.032Z,100.00
2018-11-06T20:39:08.386Z,100.00
2018-11-06T20:41:38.200Z,100.00
2018-11-06T20:44:07.058Z,100.00
2018-11-06T20:46:36.154Z,100.00
2018-11-06T20:49:05.542Z,100.00
2018-11-06T20:51:34.310Z,100.00
2018-11-06T20:54:05.293Z,100.00
2018-11-06T20:56:34.639Z,100.00
2018-11-06T20:59:05.039Z,100.00
2018-11-06T21:01:34.000Z,100.00
2018-11-06T21:04:05.845Z,100.00
2018-11-06T21:06:34.451Z,100.00
2018-11-06T21:09:08.601Z,100.00
2018-11-06T21:11:37.499Z,100.00
2018-11-06T21:14:06.737Z,100.00
2018-11-06T21:16:35.557Z,100.00
2018-11-06T21:19:05.482Z,100.00
2018-11-06T21:21:34.397Z,100.00
2018-11-06T21:24:05.851Z,100.00
2018-11-06T21:26:34.735Z,100.00
2018-11-06T21:29:07.301Z,100.00
2018-11-06T21:31:35.980Z,100.00
2018-11-06T21:34:05.281Z,100.00
2018-11-06T21:36:34.854Z,100.00
2018-11-06T21:39:06.636Z,100.00
2018-11-06T21:41:35.227Z,100.00
2018-11-06T21:44:05.960Z,100.00
2018-11-06T21:46:34.610Z,100.00
2018-11-06T21:49:04.918Z,100.00
2018-11-06T21:51:33.622Z,100.00
2018-11-06T21:54:04.868Z,100.00
2018-11-06T21:56:33.462Z,100.00
2018-11-06T21:59:03.900Z,100.00
2018-11-06T22:01:32.801Z,100.00
2018-11-06T22:04:03.218Z,100.00
2018-11-06T22:06:31.823Z,100.00
2018-11-06T22:09:07.300Z,100.00
2018-11-06T22:11:35.896Z,100.00
2018-11-06T22:14:06.215Z,100.00
2018-11-06T22:16:34.757Z,100.00
2018-11-06T22:19:04.615Z,100.00
2018-11-06T22:21:34.581Z,100.00
2018-11-06T22:24:04.868Z,100.00
2018-11-06T22:26:33.433Z,100.00
2018-11-06T22:29:02.853Z,100.00
2018-11-06T22:31:31.541Z,100.00
2018-11-06T22:33:59.965Z,100.00
2018-11-06T22:36:28.647Z,100.00
2018-11-06T22:38:57.167Z,100.00
2018-11-06T22:41:25.842Z,100.00
2018-11-06T22:43:54.476Z,100.00
2018-11-06T22:46:23.329Z,100.00
2018-11-06T22:48:51.872Z,100.00
2018-11-06T22:51:21.386Z,100.00
2018-11-06T22:53:49.943Z,100.00
2018-11-06T22:56:18.459Z,100.00
2018-11-06T22:58:47.169Z,100.00
2018-11-06T23:01:24.749Z,100.00
2018-11-06T23:03:53.990Z,100.00
2018-11-06T23:06:22.716Z,100.00
2018-11-06T23:08:51.425Z,100.00
2018-11-06T23:11:19.937Z,100.00
2018-11-06T23:13:56.073Z,100.00
2018-11-06T23:16:24.619Z,100.00
2018-11-06T23:18:53.116Z,100.00
2018-11-06T23:21:21.689Z,100.00
2018-11-06T23:23:50.225Z,100.00
2018-11-06T23:26:18.884Z,100.00
2018-11-06T23:28:47.386Z,100.00
2018-11-06T23:31:16.351Z,100.00
2018-11-06T23:33:45.317Z,100.00
2018-11-06T23:36:13.865Z,100.00
2018-11-06T23:38:42.817Z,100.00
2018-11-06T23:41:11.538Z,100.00
2018-11-06T23:43:40.119Z,100.00
2018-11-06T23:46:09.182Z,100.00
2018-11-06T23:48:37.744Z,100.00
2018-11-06T23:51:06.306Z,100.00
2018-11-06T23:53:34.926Z,100.00
2018-11-06T23:56:05.301Z,100.00
2018-11-06T23:58:34.068Z,100.00
